Time;durP1;ratioP1;P1;durP2;ratioP2;P2;SDS_P1;SDS_P2;PMS_P1;PMS_P2;Temp;Humidity;BMP_temperature;BMP_pressure;BME280_temperature;BME280_humidity;BME280_pressure;Samples;Min_cycle;Max_cycle;Signal;HPM_P1;HPM_P2
2022/04/12 00:00:57;;;;;;;7.50;6.80;;;;;;;;;;5074343;28;20489;-50
2022/04/12 00:03:26;;;;;;;13.17;7.57;;;;;;;;;;5074207;28;20418;-51
2022/04/12 00:05:52;;;;;;;9.63;6.83;;;;;;;;;;5074270;28;20425;-52
2022/04/12 00:08:18;;;;;;;9.23;6.93;;;;;;;;;;5072938;28;20576;-49
2022/04/12 00:10:45;;;;;;;10.17;6.60;;;;;;;;;;5073022;28;20771;-54
2022/04/12 00:13:12;;;;;;;8.03;6.70;;;;;;;;;;5074183;28;20407;-50
2022/04/12 00:15:41;;;;;;;7.37;6.50;;;;;;;;;;5074026;28;20744;-52
2022/04/12 00:20:54;;;;;;;6.67;5.90;;;;;;;;;;5073692;28;20528;-51
2022/04/12 00:23:20;;;;;;;7.20;6.50;;;;;;;;;;5073758;28;20398;-51
2022/04/12 00:25:46;;;;;;;7.23;6.53;;;;;;;;;;5074073;28;20450;-50
2022/04/12 00:28:13;;;;;;;8.60;6.20;;;;;;;;;;5073682;28;20554;-52
2022/04/12 00:30:43;;;;;;;7.37;6.43;;;;;;;;;;5073756;28;20421;-52
2022/04/12 00:33:09;;;;;;;7.00;6.27;;;;;;;;;;5073751;28;20415;-55
2022/04/12 00:35:35;;;;;;;6.20;5.60;;;;;;;;;;5073520;28;20398;-52
2022/04/12 00:38:01;;;;;;;7.20;6.17;;;;;;;;;;5073579;28;20494;-56
2022/04/12 00:40:27;;;;;;;8.83;6.50;;;;;;;;;;5073622;28;20414;-48
2022/04/12 00:42:54;;;;;;;6.90;6.03;;;;;;;;;;5073511;28;20449;-51
2022/04/12 00:45:20;;;;;;;6.90;6.23;;;;;;;;;;5073591;28;20850;-54
2022/04/12 00:47:46;;;;;;;8.63;6.50;;;;;;;;;;5073584;28;20580;-52
2022/04/12 00:50:15;;;;;;;9.23;6.63;;;;;;;;;;5073443;28;20414;-54
2022/04/12 00:52:49;;;;;;;8.17;6.50;;;;;;;;;;5073308;28;20764;-55
2022/04/12 00:55:16;;;;;;;10.07;6.20;;;;;;;;;;5073469;28;20407;-51
2022/04/12 00:57:42;;;;;;;8.20;6.30;;;;;;;;;;5073190;28;20415;-50
2022/04/12 01:00:09;;;;;;;7.20;6.10;;;;;;;;;;5073213;28;20464;-50
2022/04/12 01:02:35;;;;;;;6.80;6.20;;;;;;;;;;5071742;28;20509;-50
2022/04/12 01:05:01;;;;;;;6.40;5.90;;;;;;;;;;5073102;28;20755;-50
2022/04/12 01:07:28;;;;;;;6.97;5.90;;;;;;;;;;5072890;28;20960;-52
2022/04/12 01:09:54;;;;;;;6.60;6.00;;;;;;;;;;5072909;28;20417;-49
2022/04/12 01:12:21;;;;;;;6.30;5.80;;;;;;;;;;5073225;28;20393;-52
2022/04/12 01:14:47;;;;;;;7.13;6.53;;;;;;;;;;5073198;28;20410;-53
2022/04/12 01:17:15;;;;;;;7.50;6.27;;;;;;;;;;5072877;28;20403;-54
2022/04/12 01:19:41;;;;;;;13.80;6.77;;;;;;;;;;5072785;28;20447;-51
2022/04/12 01:22:11;;;;;;;9.60;7.00;;;;;;;;;;5072827;28;20390;-61
2022/04/12 01:24:37;;;;;;;11.70;7.10;;;;;;;;;;5072658;28;20398;-48
2022/04/12 01:27:03;;;;;;;11.90;6.20;;;;;;;;;;5072661;28;20458;-51
2022/04/12 01:29:32;;;;;;;6.90;6.20;;;;;;;;;;5072743;28;20454;-49
2022/04/12 01:31:58;;;;;;;6.70;6.10;;;;;;;;;;5072920;28;20411;-53
2022/04/12 01:34:24;;;;;;;7.20;6.10;;;;;;;;;;5072825;28;20418;-52
2022/04/12 01:36:50;;;;;;;6.07;5.53;;;;;;;;;;5072700;28;20411;-53
2022/04/12 01:39:16;;;;;;;9.57;6.20;;;;;;;;;;5071537;28;20426;-50
2022/04/12 01:41:42;;;;;;;6.17;5.67;;;;;;;;;;5072776;28;20887;-50
2022/04/12 01:44:09;;;;;;;7.00;6.40;;;;;;;;;;5072602;28;20505;-49
2022/04/12 01:46:35;;;;;;;7.87;6.20;;;;;;;;;;5072551;28;20407;-51
2022/04/12 01:49:01;;;;;;;6.00;5.50;;;;;;;;;;5072631;28;20903;-49
2022/04/12 01:51:28;;;;;;;6.67;6.07;;;;;;;;;;5072552;28;20957;-53
2022/04/12 01:53:53;;;;;;;7.70;6.20;;;;;;;;;;5072544;28;20418;-53
2022/04/12 01:56:19;;;;;;;7.27;6.30;;;;;;;;;;5072593;28;20452;-54
2022/04/12 01:58:45;;;;;;;7.50;6.50;;;;;;;;;;5072633;28;20451;-51
2022/04/12 02:01:14;;;;;;;6.50;5.90;;;;;;;;;;5072548;28;20407;-51
2022/04/12 02:03:40;;;;;;;8.33;5.97;;;;;;;;;;5072386;28;20411;-53
2022/04/12 02:06:07;;;;;;;6.60;6.00;;;;;;;;;;5072414;28;20414;-55
2022/04/12 02:08:33;;;;;;;6.30;5.80;;;;;;;;;;5072385;28;20522;-51
2022/04/12 02:10:59;;;;;;;7.77;6.47;;;;;;;;;;5072212;28;20415;-53
2022/04/12 02:13:25;;;;;;;6.63;6.00;;;;;;;;;;5072705;28;20406;-53
2022/04/12 02:15:51;;;;;;;6.73;6.13;;;;;;;;;;5071016;28;20925;-51
2022/04/12 02:18:18;;;;;;;6.57;5.97;;;;;;;;;;5074280;28;20414;-49
2022/04/12 02:20:44;;;;;;;9.40;6.17;;;;;;;;;;5076047;28;20465;-50
2022/04/12 02:23:10;;;;;;;10.63;6.07;;;;;;;;;;5074918;28;20414;-54
2022/04/12 02:25:36;;;;;;;13.73;7.17;;;;;;;;;;5076093;28;20418;-50
2022/04/12 02:28:02;;;;;;;7.50;6.50;;;;;;;;;;5075969;28;20468;-50
2022/04/12 02:30:28;;;;;;;7.97;6.80;;;;;;;;;;5076124;28;20490;-51
2022/04/12 02:32:58;;;;;;;6.80;6.10;;;;;;;;;;5076015;28;20403;-58
2022/04/12 02:35:25;;;;;;;7.30;6.10;;;;;;;;;;5075992;28;20452;-49
2022/04/12 02:37:51;;;;;;;8.90;6.40;;;;;;;;;;5074569;28;20833;-51
2022/04/12 02:40:17;;;;;;;6.90;6.20;;;;;;;;;;5075984;28;20825;-52
2022/04/12 02:42:44;;;;;;;8.33;5.97;;;;;;;;;;5075876;28;20418;-56
2022/04/12 02:45:10;;;;;;;8.30;6.57;;;;;;;;;;5075646;28;20422;-56
2022/04/12 02:47:36;;;;;;;7.17;6.43;;;;;;;;;;5075626;28;20476;-58
2022/04/12 02:50:02;;;;;;;7.60;6.30;;;;;;;;;;5075651;28;20411;-59
2022/04/12 02:52:28;;;;;;;7.27;6.60;;;;;;;;;;5074329;28;20914;-54
2022/04/12 02:54:54;;;;;;;7.17;6.57;;;;;;;;;;5075529;28;20418;-57
2022/04/12 02:57:20;;;;;;;10.47;6.13;;;;;;;;;;5075444;28;20414;-54
2022/04/12 02:59:46;;;;;;;7.43;5.77;;;;;;;;;;5075527;28;20419;-56
2022/04/12 03:02:12;;;;;;;7.27;6.63;;;;;;;;;;5075423;28;20847;-56
2022/04/12 03:04:41;;;;;;;12.83;7.20;;;;;;;;;;5074175;28;20425;-51
2022/04/12 03:07:08;;;;;;;9.83;6.30;;;;;;;;;;5075286;28;20450;-57
2022/04/12 03:09:35;;;;;;;11.00;6.50;;;;;;;;;;5075387;28;20419;-55
2022/04/12 03:12:04;;;;;;;8.90;6.20;;;;;;;;;;5075266;28;20728;-57
2022/04/12 03:14:30;;;;;;;9.87;6.93;;;;;;;;;;5075204;28;20486;-56
2022/04/12 03:16:56;;;;;;;7.00;6.10;;;;;;;;;;5075173;28;20437;-60
2022/04/12 03:19:22;;;;;;;6.77;6.10;;;;;;;;;;5074841;28;20442;-56
2022/04/12 03:21:48;;;;;;;12.73;7.57;;;;;;;;;;5075181;28;20454;-52
2022/04/12 03:24:14;;;;;;;6.97;6.27;;;;;;;;;;5074986;28;20419;-52
2022/04/12 03:26:40;;;;;;;7.20;6.30;;;;;;;;;;5073480;28;20407;-58
2022/04/12 03:29:07;;;;;;;7.00;6.30;;;;;;;;;;5072580;28;20423;-55
2022/04/12 03:31:33;;;;;;;10.07;6.70;;;;;;;;;;5074681;28;20497;-53
2022/04/12 03:34:02;;;;;;;7.10;6.30;;;;;;;;;;5074797;28;20814;-54
2022/04/12 03:36:28;;;;;;;8.33;6.37;;;;;;;;;;5074723;28;20907;-62
2022/04/12 03:38:54;;;;;;;7.27;6.20;;;;;;;;;;5073299;28;20415;-58
2022/04/12 03:41:22;;;;;;;7.63;6.53;;;;;;;;;;5074685;28;20494;-51
2022/04/12 03:43:49;;;;;;;11.43;6.67;;;;;;;;;;5074714;28;20411;-61
2022/04/12 03:46:15;;;;;;;10.43;6.43;;;;;;;;;;5074548;28;20914;-54
2022/04/12 03:48:41;;;;;;;8.10;6.73;;;;;;;;;;5074482;28;20885;-56
2022/04/12 03:51:07;;;;;;;8.00;7.20;;;;;;;;;;5074425;28;20867;-55
2022/04/12 03:53:33;;;;;;;7.10;6.40;;;;;;;;;;5074408;28;20456;-54
2022/04/12 03:56:04;;;;;;;7.40;6.23;;;;;;;;;;5074361;28;20918;-54
2022/04/12 03:58:30;;;;;;;7.20;6.50;;;;;;;;;;5074405;28;20410;-51
2022/04/12 04:00:56;;;;;;;7.80;6.93;;;;;;;;;;5074265;28;20493;-57
2022/04/12 04:03:25;;;;;;;7.83;6.60;;;;;;;;;;5074184;28;20831;-55
2022/04/12 04:05:51;;;;;;;7.00;6.30;;;;;;;;;;5074154;28;20413;-55
2022/04/12 04:08:17;;;;;;;8.07;6.80;;;;;;;;;;5074244;28;20974;-54
2022/04/12 04:10:43;;;;;;;8.60;6.77;;;;;;;;;;5074171;28;20411;-57
2022/04/12 04:13:09;;;;;;;14.13;6.70;;;;;;;;;;5074015;28;20414;-57
2022/04/12 04:15:42;;;;;;;6.97;6.37;;;;;;;;;;5073583;28;20493;-55
2022/04/12 04:18:08;;;;;;;6.33;5.73;;;;;;;;;;5074013;28;20763;-55
2022/04/12 04:20:35;;;;;;;8.30;6.87;;;;;;;;;;5073785;28;20541;-56
2022/04/12 04:23:01;;;;;;;8.27;6.40;;;;;;;;;;5073927;28;20410;-57
2022/04/12 04:25:30;;;;;;;14.10;7.70;;;;;;;;;;5072443;28;20503;-55
2022/04/12 04:27:56;;;;;;;8.23;6.10;;;;;;;;;;5072222;28;20616;-55
2022/04/12 04:30:22;;;;;;;13.20;6.83;;;;;;;;;;5072408;28;20415;-56
2022/04/12 04:32:49;;;;;;;8.77;6.90;;;;;;;;;;5073797;28;20411;-55
2022/04/12 04:35:15;;;;;;;9.07;6.60;;;;;;;;;;5072518;28;20418;-56
2022/04/12 04:37:45;;;;;;;10.33;6.83;;;;;;;;;;5073445;28;20767;-55
2022/04/12 04:40:13;;;;;;;7.90;6.93;;;;;;;;;;5073103;28;20414;-54
2022/04/12 04:42:40;;;;;;;9.63;7.07;;;;;;;;;;5073335;28;20522;-54
2022/04/12 04:45:06;;;;;;;6.97;6.30;;;;;;;;;;5073300;28;20403;-54
2022/04/12 04:47:32;;;;;;;9.87;7.27;;;;;;;;;;5073288;28;20527;-55
2022/04/12 04:49:58;;;;;;;11.30;7.37;;;;;;;;;;5071935;28;20414;-55
2022/04/12 04:52:24;;;;;;;11.47;6.87;;;;;;;;;;5073360;28;20937;-55
2022/04/12 04:54:50;;;;;;;9.80;7.20;;;;;;;;;;5073178;28;20460;-54
2022/04/12 04:57:16;;;;;;;9.73;7.07;;;;;;;;;;5073286;28;20426;-57
2022/04/12 04:59:42;;;;;;;8.80;7.00;;;;;;;;;;5073227;28;20418;-53
2022/04/12 05:02:08;;;;;;;8.00;6.87;;;;;;;;;;5072982;28;20415;-51
2022/04/12 05:04:37;;;;;;;9.67;7.87;;;;;;;;;;5071719;28;20419;-56
2022/04/12 05:07:03;;;;;;;12.70;7.37;;;;;;;;;;5072936;28;20537;-57
2022/04/12 05:09:29;;;;;;;11.90;7.60;;;;;;;;;;5072752;28;20419;-51
2022/04/12 05:11:55;;;;;;;9.73;6.60;;;;;;;;;;5072817;28;20407;-53
2022/04/12 05:14:21;;;;;;;7.77;6.97;;;;;;;;;;5072779;28;20411;-51
2022/04/12 05:16:47;;;;;;;10.37;7.67;;;;;;;;;;5071587;28;21040;-50
2022/04/12 05:19:16;;;;;;;9.27;7.17;;;;;;;;;;5072410;28;20406;-49
2022/04/12 05:21:42;;;;;;;7.80;7.03;;;;;;;;;;5072738;28;20457;-50
2022/04/12 05:24:08;;;;;;;7.70;7.03;;;;;;;;;;5071429;28;20544;-51
2022/04/12 05:26:34;;;;;;;10.50;7.77;;;;;;;;;;5072557;28;20480;-52
2022/04/12 05:29:00;;;;;;;8.70;6.90;;;;;;;;;;5072661;28;20415;-50
2022/04/12 05:31:26;;;;;;;7.50;6.80;;;;;;;;;;5072570;28;20821;-51
2022/04/12 05:33:55;;;;;;;11.50;6.90;;;;;;;;;;5072430;28;20907;-50
2022/04/12 05:36:21;;;;;;;7.80;7.00;;;;;;;;;;5072303;28;20442;-50
2022/04/12 05:38:47;;;;;;;7.47;6.77;;;;;;;;;;5072517;28;20434;-52
2022/04/12 05:41:13;;;;;;;8.67;7.53;;;;;;;;;;5072199;28;20895;-51
2022/04/12 05:43:39;;;;;;;7.83;7.17;;;;;;;;;;5072290;28;20422;-50
2022/04/12 05:46:05;;;;;;;8.90;7.27;;;;;;;;;;5072528;28;20403;-49
2022/04/12 05:48:31;;;;;;;7.87;7.03;;;;;;;;;;5072068;28;20556;-49
2022/04/12 05:50:58;;;;;;;8.63;7.33;;;;;;;;;;5072295;28;20399;-55
2022/04/12 05:53:24;;;;;;;9.27;7.27;;;;;;;;;;5071535;28;20418;-51
2022/04/12 05:55:50;;;;;;;8.40;7.03;;;;;;;;;;5072346;28;20402;-51
2022/04/12 05:58:16;;;;;;;7.37;6.53;;;;;;;;;;5072229;28;20760;-51
2022/04/12 06:00:42;;;;;;;7.97;6.83;;;;;;;;;;5072225;28;20403;-51
2022/04/12 06:03:08;;;;;;;8.50;7.23;;;;;;;;;;5072123;28;20411;-50
2022/04/12 06:05:34;;;;;;;9.17;7.23;;;;;;;;;;5072094;28;20509;-52
2022/04/12 06:08:00;;;;;;;11.33;7.30;;;;;;;;;;5071999;28;20466;-52
2022/04/12 06:10:27;;;;;;;9.80;7.00;;;;;;;;;;5072146;28;20414;-50
2022/04/12 06:12:53;;;;;;;7.60;6.80;;;;;;;;;;5070871;28;20418;-51
2022/04/12 06:15:19;;;;;;;7.73;6.90;;;;;;;;;;5072209;28;20494;-54
2022/04/12 06:17:45;;;;;;;8.23;7.07;;;;;;;;;;5071944;28;20474;-52
2022/04/12 06:20:12;;;;;;;9.13;7.33;;;;;;;;;;5071925;28;20469;-49
2022/04/12 06:22:38;;;;;;;8.60;6.83;;;;;;;;;;5071995;28;20415;-53
2022/04/12 06:25:05;;;;;;;8.00;6.87;;;;;;;;;;5071685;28;20402;-50
2022/04/12 06:27:32;;;;;;;10.13;7.17;;;;;;;;;;5070137;28;20466;-50
2022/04/12 06:29:58;;;;;;;10.30;7.47;;;;;;;;;;5071433;28;20802;-55
2022/04/12 06:32:26;;;;;;;8.00;7.20;;;;;;;;;;5071921;28;20564;-51
2022/04/12 06:34:52;;;;;;;9.43;6.47;;;;;;;;;;5072083;28;20406;-51
2022/04/12 06:37:18;;;;;;;8.07;7.27;;;;;;;;;;5071925;28;20403;-54
2022/04/12 06:39:44;;;;;;;8.67;7.00;;;;;;;;;;5071794;28;20524;-51
2022/04/12 06:42:10;;;;;;;8.30;7.00;;;;;;;;;;5071566;28;20503;-51
2022/04/12 06:44:39;;;;;;;11.20;6.53;;;;;;;;;;5071518;28;20414;-53
2022/04/12 06:47:05;;;;;;;14.03;8.70;;;;;;;;;;5071677;28;20450;-53
2022/04/12 06:49:31;;;;;;;15.63;7.70;;;;;;;;;;5071739;28;20418;-47
2022/04/12 06:51:57;;;;;;;11.40;7.57;;;;;;;;;;5071608;28;20410;-52
2022/04/12 06:54:23;;;;;;;9.30;7.17;;;;;;;;;;5070629;28;20414;-56
2022/04/12 06:56:49;;;;;;;9.80;7.20;;;;;;;;;;5071850;28;20415;-51
2022/04/12 06:59:16;;;;;;;12.60;9.30;;;;;;;;;;5071605;28;20395;-51
2022/04/12 07:01:42;;;;;;;7.13;6.47;;;;;;;;;;5071758;28;20434;-59
2022/04/12 07:04:08;;;;;;;8.43;7.40;;;;;;;;;;5073046;28;20751;-52
2022/04/12 07:06:34;;;;;;;7.60;6.87;;;;;;;;;;5075172;28;20407;-51
2022/04/12 07:09:00;;;;;;;8.93;6.70;;;;;;;;;;5075207;28;20496;-54
2022/04/12 07:11:26;;;;;;;8.20;7.40;;;;;;;;;;5074019;28;20454;-52
2022/04/12 07:13:52;;;;;;;7.43;6.73;;;;;;;;;;5075100;28;20418;-51
2022/04/12 07:16:18;;;;;;;8.43;7.17;;;;;;;;;;5075516;28;20457;-51
2022/04/12 07:18:44;;;;;;;7.60;6.93;;;;;;;;;;5075099;28;20410;-54
2022/04/12 07:21:10;;;;;;;16.90;7.80;;;;;;;;;;5072804;28;20481;-59
2022/04/12 07:23:36;;;;;;;8.93;6.70;;;;;;;;;;5073282;28;20916;-53
2022/04/12 07:26:04;;;;;;;8.23;7.53;;;;;;;;;;5073820;28;20732;-52
2022/04/12 07:28:30;;;;;;;8.27;6.67;;;;;;;;;;5069933;28;20509;-54
2022/04/12 07:30:59;;;;;;;9.93;7.07;;;;;;;;;;5082024;28;20492;-60
2022/04/12 07:33:25;;;;;;;8.33;7.53;;;;;;;;;;5083717;28;20509;-56
2022/04/12 07:35:51;;;;;;;7.80;7.03;;;;;;;;;;5093304;28;20409;-63
2022/04/12 07:38:17;;;;;;;8.80;7.00;;;;;;;;;;5079980;28;20472;-59
2022/04/12 07:40:44;;;;;;;10.20;7.43;;;;;;;;;;5071754;28;20412;-57
2022/04/12 07:43:10;;;;;;;7.60;6.90;;;;;;;;;;5068536;28;20426;-57
2022/04/12 07:45:36;;;;;;;10.40;7.13;;;;;;;;;;5077928;28;20463;-63
2022/04/12 07:48:02;;;;;;;10.10;7.53;;;;;;;;;;5075590;28;20470;-56
2022/04/12 07:50:28;;;;;;;8.17;7.30;;;;;;;;;;5057564;28;20415;-54
2022/04/12 07:52:54;;;;;;;10.03;7.30;;;;;;;;;;5053620;28;20419;-53
2022/04/12 07:55:20;;;;;;;12.60;7.80;;;;;;;;;;5053617;28;20408;-52
2022/04/12 07:57:46;;;;;;;12.83;7.90;;;;;;;;;;5053703;28;20411;-59
2022/04/12 08:00:13;;;;;;;12.27;8.43;;;;;;;;;;5053403;28;20408;-55
2022/04/12 08:02:39;;;;;;;9.20;7.83;;;;;;;;;;5060113;28;20816;-59
2022/04/12 08:05:05;;;;;;;11.60;7.50;;;;;;;;;;5092392;28;20417;-58
2022/04/12 08:07:31;;;;;;;12.27;8.17;;;;;;;;;;5093463;28;20624;-56
2022/04/12 08:09:57;;;;;;;9.77;7.30;;;;;;;;;;5093319;28;20420;-58
2022/04/12 08:12:23;;;;;;;10.67;7.07;;;;;;;;;;5093281;28;20417;-54
2022/04/12 08:14:49;;;;;;;12.80;7.40;;;;;;;;;;5088701;28;20402;-61
2022/04/12 08:17:15;;;;;;;11.13;6.93;;;;;;;;;;5072703;28;20407;-59
2022/04/12 08:19:41;;;;;;;8.80;7.30;;;;;;;;;;5072615;28;20499;-60
2022/04/12 08:22:11;;;;;;;11.53;7.83;;;;;;;;;;5072874;28;20510;-62
2022/04/12 08:24:37;;;;;;;7.77;6.97;;;;;;;;;;5073021;28;20411;-57
2022/04/12 08:27:04;;;;;;;8.23;6.50;;;;;;;;;;5073050;28;20450;-55
2022/04/12 08:29:30;;;;;;;7.60;7.00;;;;;;;;;;5072836;28;20423;-57
2022/04/12 08:31:57;;;;;;;12.10;7.20;;;;;;;;;;5073162;28;20534;-64
2022/04/12 08:34:23;;;;;;;8.70;7.73;;;;;;;;;;5072690;28;20406;-60
2022/04/12 08:36:49;;;;;;;9.73;6.90;;;;;;;;;;5076045;28;20913;-55
2022/04/12 08:39:15;;;;;;;7.40;6.67;;;;;;;;;;5092918;28;20940;-59
2022/04/12 08:41:41;;;;;;;9.30;7.63;;;;;;;;;;5092771;28;20433;-56
2022/04/12 08:44:08;;;;;;;8.30;7.00;;;;;;;;;;5092845;28;20501;-57
2022/04/12 08:46:37;;;;;;;8.50;7.30;;;;;;;;;;5092664;28;20455;-61
2022/04/12 08:49:03;;;;;;;10.47;7.30;;;;;;;;;;5087524;28;20465;-58
2022/04/12 08:51:30;;;;;;;7.57;6.77;;;;;;;;;;5072334;28;20775;-57
2022/04/12 08:53:57;;;;;;;13.77;6.70;;;;;;;;;;5071321;28;20426;-61
2022/04/12 08:56:23;;;;;;;10.53;7.53;;;;;;;;;;5072340;28;20418;-62
2022/04/12 08:58:49;;;;;;;9.93;6.73;;;;;;;;;;5072585;28;20464;-62
2022/04/12 09:01:15;;;;;;;14.47;7.93;;;;;;;;;;5072453;28;20411;-57
2022/04/12 09:03:44;;;;;;;7.70;6.90;;;;;;;;;;5072614;28;20411;-54
2022/04/12 09:06:10;;;;;;;12.70;6.53;;;;;;;;;;5072206;28;20411;-55
2022/04/12 09:08:36;;;;;;;10.90;7.07;;;;;;;;;;5072184;28;20477;-62
2022/04/12 09:11:07;;;;;;;12.63;7.30;;;;;;;;;;5072407;28;20407;-55
2022/04/12 09:13:33;;;;;;;9.70;6.80;;;;;;;;;;5072238;28;20406;-58
2022/04/12 09:15:59;;;;;;;6.47;5.87;;;;;;;;;;5072220;28;20399;-57
2022/04/12 09:18:38;;;;;;;7.70;6.00;;;;;;;;;;5071964;28;20501;-55
2022/04/12 09:21:10;;;;;;;7.37;6.57;;;;;;;;;;5072144;28;20457;-55
2022/04/12 09:23:36;;;;;;;8.93;6.00;;;;;;;;;;5071939;28;20414;-58
2022/04/12 09:26:03;;;;;;;6.50;5.53;;;;;;;;;;5071995;28;20399;-56
2022/04/12 09:28:41;;;;;;;5.70;5.30;;;;;;;;;;5069783;28;20504;-56
2022/04/12 09:31:11;;;;;;;10.37;5.43;;;;;;;;;;5072184;28;20418;-54
2022/04/12 09:33:38;;;;;;;7.93;5.50;;;;;;;;;;5071744;28;20410;-56
2022/04/12 09:36:05;;;;;;;8.27;5.43;;;;;;;;;;5071919;28;20442;-58
2022/04/12 09:38:32;;;;;;;6.27;5.47;;;;;;;;;;5090430;28;20414;-56
2022/04/12 09:41:15;;;;;;;6.63;5.20;;;;;;;;;;5092051;28;20413;-55
2022/04/12 09:43:51;;;;;;;6.70;4.90;;;;;;;;;;5091800;28;20432;-55
2022/04/12 09:46:17;;;;;;;5.53;5.07;;;;;;;;;;5091779;28;20500;-55
2022/04/12 09:48:48;;;;;;;5.30;4.87;;;;;;;;;;5089158;28;20461;-57
2022/04/12 09:51:14;;;;;;;5.67;5.00;;;;;;;;;;5071671;28;20413;-54
2022/04/12 09:53:41;;;;;;;6.17;5.67;;;;;;;;;;5069891;28;20422;-55
2022/04/12 09:56:23;;;;;;;9.17;7.93;;;;;;;;;;5070241;28;20418;-54
2022/04/12 09:58:52;;;;;;;5.83;5.20;;;;;;;;;;5071836;28;20468;-54
2022/04/12 10:01:18;;;;;;;6.00;5.50;;;;;;;;;;5071494;28;20469;-55
2022/04/12 10:03:45;;;;;;;6.27;5.67;;;;;;;;;;5071683;28;20411;-55
2022/04/12 10:06:13;;;;;;;5.73;5.13;;;;;;;;;;5071163;28;20464;-58
2022/04/12 10:08:40;;;;;;;5.93;5.43;;;;;;;;;;5071196;28;20830;-54
2022/04/12 10:11:07;;;;;;;6.30;5.70;;;;;;;;;;5071032;28;20502;-57
2022/04/12 10:13:34;;;;;;;11.00;5.53;;;;;;;;;;5069774;28;20476;-53
2022/04/12 10:16:00;;;;;;;6.30;5.77;;;;;;;;;;5070950;28;20415;-55
2022/04/12 10:18:26;;;;;;;6.63;5.50;;;;;;;;;;5071270;28;20418;-54
2022/04/12 10:20:52;;;;;;;6.60;6.00;;;;;;;;;;5071356;28;20978;-55
2022/04/12 10:23:21;;;;;;;6.63;6.03;;;;;;;;;;5070425;28;20530;-54
2022/04/12 10:25:56;;;;;;;7.30;5.73;;;;;;;;;;5071724;28;20452;-53
2022/04/12 10:28:24;;;;;;;8.60;5.63;;;;;;;;;;5071410;28;20564;-61
2022/04/12 10:30:50;;;;;;;6.17;5.67;;;;;;;;;;5071491;28;20914;-56
2022/04/12 10:33:38;;;;;;;7.30;5.70;;;;;;;;;;5071721;28;20763;-59
2022/04/12 10:36:06;;;;;;;11.90;6.13;;;;;;;;;;5071141;28;20402;-56
2022/04/12 10:38:42;;;;;;;5.60;5.00;;;;;;;;;;5070467;28;20410;-54
2022/04/12 10:41:31;;;;;;;8.43;5.70;;;;;;;;;;5075282;28;20395;-54
2022/04/12 10:43:58;;;;;;;6.77;6.17;;;;;;;;;;5067019;28;20914;-53
2022/04/12 10:46:24;;;;;;;7.03;5.60;;;;;;;;;;5075040;28;20411;-52
2022/04/12 10:48:54;;;;;;;6.20;5.70;;;;;;;;;;5071825;28;20529;-54
2022/04/12 10:51:28;;;;;;;7.47;6.77;;;;;;;;;;5055146;28;20411;-53
2022/04/12 10:53:54;;;;;;;5.93;5.33;;;;;;;;;;5054544;28;20938;-54
2022/04/12 10:56:23;;;;;;;7.13;6.33;;;;;;;;;;5054951;28;20399;-57
2022/04/12 10:58:49;;;;;;;5.33;5.00;;;;;;;;;;5054933;28;20481;-55
2022/04/12 11:01:32;;;;;;;6.00;5.47;;;;;;;;;;5054758;28;20811;-53
2022/04/12 11:04:03;;;;;;;6.77;5.50;;;;;;;;;;5054414;28;20411;-55
2022/04/12 11:06:30;;;;;;;5.90;5.00;;;;;;;;;;5054509;28;20423;-53
2022/04/12 11:09:07;;;;;;;6.23;5.63;;;;;;;;;;5054473;28;20471;-55
2022/04/12 11:11:44;;;;;;;8.20;6.50;;;;;;;;;;5054434;28;20412;-54
2022/04/12 11:14:46;;;;;;;6.90;6.13;;;;;;;;;;5054425;28;20407;-53
2022/04/12 11:17:13;;;;;;;6.00;5.40;;;;;;;;;;4988124;28;20525;-54
2022/04/12 11:19:47;;;;;;;5.90;5.50;;;;;;;;;;5051724;28;20454;-56
2022/04/12 11:22:16;;;;;;;6.67;5.77;;;;;;;;;;5073735;28;20502;-56
2022/04/12 11:24:43;;;;;;;6.33;5.53;;;;;;;;;;5073960;28;20399;-57
2022/04/12 11:27:10;;;;;;;11.43;6.17;;;;;;;;;;5072394;28;20544;-54
2022/04/12 11:29:37;;;;;;;7.93;6.10;;;;;;;;;;5074056;28;20406;-54
2022/04/12 11:32:04;;;;;;;7.50;5.60;;;;;;;;;;5073276;28;20833;-60
2022/04/12 11:34:31;;;;;;;5.47;4.70;;;;;;;;;;5074115;28;20422;-56
2022/04/12 11:36:57;;;;;;;6.20;5.23;;;;;;;;;;5079711;28;20758;-55
2022/04/12 11:39:24;;;;;;;6.80;6.03;;;;;;;;;;5093980;28;20902;-57
2022/04/12 11:41:50;;;;;;;6.70;5.63;;;;;;;;;;5092904;28;20432;-54
2022/04/12 11:44:21;;;;;;;6.83;6.00;;;;;;;;;;5094248;28;20471;-55
2022/04/12 11:46:54;;;;;;;10.20;5.90;;;;;;;;;;5094259;28;20484;-57
2022/04/12 11:49:20;;;;;;;7.33;5.17;;;;;;;;;;5086371;28;20419;-60
2022/04/12 11:51:49;;;;;;;7.73;5.47;;;;;;;;;;5072917;28;20394;-52
2022/04/12 11:54:26;;;;;;;5.53;5.03;;;;;;;;;;5073687;28;20403;-62
2022/04/12 11:57:02;;;;;;;6.30;5.10;;;;;;;;;;5073657;28;20410;-58
2022/04/12 11:59:29;;;;;;;8.43;6.00;;;;;;;;;;5073660;28;20398;-53
2022/04/12 12:01:59;;;;;;;7.50;5.67;;;;;;;;;;5073648;28;20413;-61
2022/04/12 12:04:29;;;;;;;8.30;5.67;;;;;;;;;;5073119;28;20417;-58
2022/04/12 12:07:00;;;;;;;6.60;6.00;;;;;;;;;;5072289;28;20450;-55
2022/04/12 12:09:26;;;;;;;6.57;6.07;;;;;;;;;;5073509;28;20415;-55
2022/04/12 12:11:52;;;;;;;10.10;5.80;;;;;;;;;;5073269;28;20533;-58
2022/04/12 12:14:21;;;;;;;5.60;5.10;;;;;;;;;;5058149;28;20946;-56
2022/04/12 12:17:08;;;;;;;6.57;5.67;;;;;;;;;;5072116;28;20406;-59
2022/04/12 12:19:38;;;;;;;6.70;6.00;;;;;;;;;;5073065;28;20462;-57
2022/04/12 12:22:04;;;;;;;7.20;6.10;;;;;;;;;;5073098;28;20403;-58
2022/04/12 12:24:34;;;;;;;6.60;6.00;;;;;;;;;;5073219;28;20490;-58
2022/04/12 12:27:01;;;;;;;6.70;6.10;;;;;;;;;;5072945;28;20403;-60
2022/04/12 12:29:27;;;;;;;6.70;6.10;;;;;;;;;;5073063;28;20419;-57
2022/04/12 12:31:57;;;;;;;8.00;5.93;;;;;;;;;;5071552;28;20518;-55
2022/04/12 12:34:28;;;;;;;5.77;5.30;;;;;;;;;;5071479;28;20253;-56
2022/04/12 12:36:54;;;;;;;8.10;5.77;;;;;;;;;;5077686;28;20409;-58
2022/04/12 12:39:20;;;;;;;6.90;5.30;;;;;;;;;;5093149;28;20433;-57
2022/04/12 12:41:46;;;;;;;9.73;5.60;;;;;;;;;;5093103;28;20886;-58
2022/04/12 12:44:13;;;;;;;6.50;5.40;;;;;;;;;;5092749;28;20846;-56
2022/04/12 12:46:39;;;;;;;5.83;5.23;;;;;;;;;;5092781;28;20744;-57
2022/04/12 12:49:09;;;;;;;5.90;5.40;;;;;;;;;;5087166;28;20488;-58
2022/04/12 12:51:36;;;;;;;6.03;5.40;;;;;;;;;;5072154;28;20502;-62
2022/04/12 12:54:07;;;;;;;5.97;5.40;;;;;;;;;;5071038;28;20937;-61
2022/04/12 12:56:34;;;;;;;4.90;4.27;;;;;;;;;;5072563;28;20761;-56
2022/04/12 12:59:18;;;;;;;4.47;4.00;;;;;;;;;;5072266;28;20419;-62
2022/04/12 13:01:45;;;;;;;5.10;4.60;;;;;;;;;;5072184;28;20493;-59
2022/04/12 13:04:28;;;;;;;5.60;4.23;;;;;;;;;;5070874;28;20461;-61
2022/04/12 13:07:00;;;;;;;10.60;4.40;;;;;;;;;;5072085;28;20903;-56
2022/04/12 13:09:26;;;;;;;9.87;4.90;;;;;;;;;;5072366;28;20482;-58
2022/04/12 13:11:52;;;;;;;4.17;3.87;;;;;;;;;;5072213;28;20414;-56
2022/04/12 13:14:18;;;;;;;4.97;4.53;;;;;;;;;;5070888;28;20423;-56
2022/04/12 13:16:44;;;;;;;6.60;3.93;;;;;;;;;;5072052;28;20421;-56
2022/04/12 13:19:11;;;;;;;5.37;4.00;;;;;;;;;;5071792;28;20449;-57
2022/04/12 13:21:37;;;;;;;3.87;3.30;;;;;;;;;;5072159;28;20443;-57
2022/04/12 13:24:03;;;;;;;6.83;3.83;;;;;;;;;;5071925;28;20796;-59
2022/04/12 13:26:29;;;;;;;12.70;3.60;;;;;;;;;;5071941;28;20254;-59
2022/04/12 13:28:55;;;;;;;4.03;3.60;;;;;;;;;;5071703;28;20474;-57
2022/04/12 13:31:27;;;;;;;4.40;4.00;;;;;;;;;;5071923;28;20407;-58
2022/04/12 13:33:55;;;;;;;3.50;3.30;;;;;;;;;;5070634;28;20176;-58
2022/04/12 13:36:25;;;;;;;5.60;3.40;;;;;;;;;;5072149;28;20406;-62
2022/04/12 13:38:51;;;;;;;3.70;3.40;;;;;;;;;;5092281;28;20771;-56
2022/04/12 13:41:17;;;;;;;15.00;3.30;;;;;;;;;;5092111;28;20878;-58
2022/04/12 13:43:43;;;;;;;3.47;3.27;;;;;;;;;;5090626;28;20429;-60
2022/04/12 13:46:12;;;;;;;5.73;4.30;;;;;;;;;;5091937;28;20406;-60
2022/04/12 13:48:38;;;;;;;3.80;3.50;;;;;;;;;;5089920;28;20461;-61
2022/04/12 13:51:06;;;;;;;3.43;3.10;;;;;;;;;;5071730;28;20729;-58
2022/04/12 13:53:32;;;;;;;4.50;3.43;;;;;;;;;;5071610;28;20176;-59
2022/04/12 13:55:58;;;;;;;3.07;2.80;;;;;;;;;;5071760;28;20399;-58
2022/04/12 13:58:25;;;;;;;3.67;3.10;;;;;;;;;;5071635;28;20430;-55
2022/04/12 14:00:51;;;;;;;3.50;3.23;;;;;;;;;;5070375;28;20448;-58
2022/04/12 14:03:17;;;;;;;3.33;2.87;;;;;;;;;;5070392;28;20422;-57
2022/04/12 14:05:46;;;;;;;3.27;2.97;;;;;;;;;;5071482;28;20411;-59
2022/04/12 14:08:12;;;;;;;4.53;3.30;;;;;;;;;;5071411;28;20470;-58
2022/04/12 14:10:40;;;;;;;3.80;3.50;;;;;;;;;;5070299;28;20420;-59
2022/04/12 14:13:06;;;;;;;4.00;2.80;;;;;;;;;;5071479;28;20437;-59
2022/04/12 14:15:33;;;;;;;6.20;3.07;;;;;;;;;;5075502;28;20406;-58
2022/04/12 14:17:59;;;;;;;4.53;2.80;;;;;;;;;;5074156;28;20867;-57
2022/04/12 14:20:25;;;;;;;6.00;3.00;;;;;;;;;;5075226;28;20458;-60
2022/04/12 14:22:52;;;;;;;3.07;2.87;;;;;;;;;;5074075;28;20828;-57
2022/04/12 14:25:18;;;;;;;3.40;3.10;;;;;;;;;;5075607;28;20443;-58
2022/04/12 14:27:44;;;;;;;4.87;2.97;;;;;;;;;;5075366;28;20453;-61
2022/04/12 14:30:11;;;;;;;7.67;3.17;;;;;;;;;;5075005;28;20421;-58
2022/04/12 14:32:37;;;;;;;3.27;2.73;;;;;;;;;;5075257;28;20398;-58
2022/04/12 14:35:03;;;;;;;11.03;3.77;;;;;;;;;;5075325;28;20414;-61
2022/04/12 14:37:29;;;;;;;4.20;2.77;;;;;;;;;;5083831;28;20182;-62
2022/04/12 14:39:55;;;;;;;5.43;2.50;;;;;;;;;;5095369;28;20413;-65
2022/04/12 14:42:21;;;;;;;3.00;2.70;;;;;;;;;;5095207;28;20500;-60
2022/04/12 14:44:47;;;;;;;4.23;2.73;;;;;;;;;;5095283;28;20635;-65